sensor_id;sensor_type;location;lat;lon;timestamp;temperature;humidity
5192;DHT22;2615;44.524;11.284;2023-05-07T00:00:06;18.10;63.30
5192;DHT22;2615;44.524;11.284;2023-05-07T00:02:35;18.10;63.00
5192;DHT22;2615;44.524;11.284;2023-05-07T00:05:05;18.00;62.70
5192;DHT22;2615;44.524;11.284;2023-05-07T00:07:33;18.00;62.50
5192;DHT22;2615;44.524;11.284;2023-05-07T00:10:01;18.00;62.50
5192;DHT22;2615;44.524;11.284;2023-05-07T00:12:31;17.90;62.30
5192;DHT22;2615;44.524;11.284;2023-05-07T00:15:01;17.90;62.30
5192;DHT22;2615;44.524;11.284;2023-05-07T00:17:29;17.90;62.30
5192;DHT22;2615;44.524;11.284;2023-05-07T00:19:57;17.90;62.30
5192;DHT22;2615;44.524;11.284;2023-05-07T00:22:25;17.90;62.30
5192;DHT22;2615;44.524;11.284;2023-05-07T00:24:53;17.90;62.20
5192;DHT22;2615;44.524;11.284;2023-05-07T00:27:22;17.90;62.10
5192;DHT22;2615;44.524;11.284;2023-05-07T00:29:51;17.90;61.90
5192;DHT22;2615;44.524;11.284;2023-05-07T00:32:19;17.90;61.90
5192;DHT22;2615;44.524;11.284;2023-05-07T00:34:47;17.90;61.80
5192;DHT22;2615;44.524;11.284;2023-05-07T00:37:16;17.90;61.70
5192;DHT22;2615;44.524;11.284;2023-05-07T00:39:44;17.90;61.70
5192;DHT22;2615;44.524;11.284;2023-05-07T00:42:12;17.90;61.60
5192;DHT22;2615;44.524;11.284;2023-05-07T00:44:41;17.80;61.60
5192;DHT22;2615;44.524;11.284;2023-05-07T00:47:11;17.80;61.50
5192;DHT22;2615;44.524;11.284;2023-05-07T00:49:42;17.80;61.50
5192;DHT22;2615;44.524;11.284;2023-05-07T00:52:13;17.80;61.50
5192;DHT22;2615;44.524;11.284;2023-05-07T00:54:42;17.80;61.50
5192;DHT22;2615;44.524;11.284;2023-05-07T00:57:10;17.80;61.40
5192;DHT22;2615;44.524;11.284;2023-05-07T00:59:39;17.80;61.30
5192;DHT22;2615;44.524;11.284;2023-05-07T01:02:07;17.70;61.20
5192;DHT22;2615;44.524;11.284;2023-05-07T01:04:37;17.70;61.10
5192;DHT22;2615;44.524;11.284;2023-05-07T01:07:05;17.70;61.20
5192;DHT22;2615;44.524;11.284;2023-05-07T01:09:34;17.70;61.20
5192;DHT22;2615;44.524;11.284;2023-05-07T01:12:04;17.70;61.10
5192;DHT22;2615;44.524;11.284;2023-05-07T01:14:32;17.70;61.00
5192;DHT22;2615;44.524;11.284;2023-05-07T01:17:00;17.70;61.00
5192;DHT22;2615;44.524;11.284;2023-05-07T01:19:29;17.70;61.80
5192;DHT22;2615;44.524;11.284;2023-05-07T01:22:02;17.60;61.10
5192;DHT22;2615;44.524;11.284;2023-05-07T01:24:33;17.60;61.00
5192;DHT22;2615;44.524;11.284;2023-05-07T01:27:02;17.60;60.90
5192;DHT22;2615;44.524;11.284;2023-05-07T01:29:30;17.60;60.90
5192;DHT22;2615;44.524;11.284;2023-05-07T01:31:59;17.50;60.90
5192;DHT22;2615;44.524;11.284;2023-05-07T01:34:30;17.50;60.90
5192;DHT22;2615;44.524;11.284;2023-05-07T01:36:59;17.50;60.90
5192;DHT22;2615;44.524;11.284;2023-05-07T01:39:29;17.50;60.90
5192;DHT22;2615;44.524;11.284;2023-05-07T01:41:59;17.50;61.00
5192;DHT22;2615;44.524;11.284;2023-05-07T01:44:27;17.40;60.90
5192;DHT22;2615;44.524;11.284;2023-05-07T01:46:57;17.40;60.90
5192;DHT22;2615;44.524;11.284;2023-05-07T01:49:25;17.40;60.90
5192;DHT22;2615;44.524;11.284;2023-05-07T01:51:54;17.40;61.00
5192;DHT22;2615;44.524;11.284;2023-05-07T01:54:25;17.40;61.10
5192;DHT22;2615;44.524;11.284;2023-05-07T01:56:56;17.40;61.20
5192;DHT22;2615;44.524;11.284;2023-05-07T01:59:26;17.40;61.30
5192;DHT22;2615;44.524;11.284;2023-05-07T02:01:54;17.40;61.40
5192;DHT22;2615;44.524;11.284;2023-05-07T02:04:22;17.40;61.40
5192;DHT22;2615;44.524;11.284;2023-05-07T02:06:51;17.30;61.20
5192;DHT22;2615;44.524;11.284;2023-05-07T02:09:19;17.30;61.20
5192;DHT22;2615;44.524;11.284;2023-05-07T02:11:47;17.30;61.20
5192;DHT22;2615;44.524;11.284;2023-05-07T02:14:15;17.30;61.20
5192;DHT22;2615;44.524;11.284;2023-05-07T02:16:45;17.30;61.20
5192;DHT22;2615;44.524;11.284;2023-05-07T02:19:13;17.30;61.20
5192;DHT22;2615;44.524;11.284;2023-05-07T02:21:41;17.20;61.10
5192;DHT22;2615;44.524;11.284;2023-05-07T02:24:09;17.20;61.00
5192;DHT22;2615;44.524;11.284;2023-05-07T02:26:39;17.20;61.10
5192;DHT22;2615;44.524;11.284;2023-05-07T02:29:07;17.20;61.10
5192;DHT22;2615;44.524;11.284;2023-05-07T02:31:35;17.30;61.20
5192;DHT22;2615;44.524;11.284;2023-05-07T02:34:05;17.30;61.10
5192;DHT22;2615;44.524;11.284;2023-05-07T02:36:33;17.20;60.90
5192;DHT22;2615;44.524;11.284;2023-05-07T02:39:01;17.30;61.10
5192;DHT22;2615;44.524;11.284;2023-05-07T02:41:29;17.20;61.00
5192;DHT22;2615;44.524;11.284;2023-05-07T02:43:58;17.20;61.10
5192;DHT22;2615;44.524;11.284;2023-05-07T02:46:26;17.20;61.10
5192;DHT22;2615;44.524;11.284;2023-05-07T02:48:54;17.20;61.10
5192;DHT22;2615;44.524;11.284;2023-05-07T02:51:23;17.20;61.10
5192;DHT22;2615;44.524;11.284;2023-05-07T02:53:52;17.20;61.10
5192;DHT22;2615;44.524;11.284;2023-05-07T02:56:21;17.20;61.10
5192;DHT22;2615;44.524;11.284;2023-05-07T02:58:50;17.10;61.10
5192;DHT22;2615;44.524;11.284;2023-05-07T03:01:18;17.10;61.10
5192;DHT22;2615;44.524;11.284;2023-05-07T03:03:47;17.10;61.20
5192;DHT22;2615;44.524;11.284;2023-05-07T03:06:15;17.10;61.20
5192;DHT22;2615;44.524;11.284;2023-05-07T03:08:45;17.10;61.30
5192;DHT22;2615;44.524;11.284;2023-05-07T03:11:13;17.10;61.40
5192;DHT22;2615;44.524;11.284;2023-05-07T03:13:41;17.10;61.40
5192;DHT22;2615;44.524;11.284;2023-05-07T03:16:09;17.00;62.00
5192;DHT22;2615;44.524;11.284;2023-05-07T03:18:37;17.00;61.30
5192;DHT22;2615;44.524;11.284;2023-05-07T03:21:06;17.00;61.30
5192;DHT22;2615;44.524;11.284;2023-05-07T03:23:34;17.00;61.20
5192;DHT22;2615;44.524;11.284;2023-05-07T03:26:03;17.00;61.30
5192;DHT22;2615;44.524;11.284;2023-05-07T03:28:32;17.00;61.40
5192;DHT22;2615;44.524;11.284;2023-05-07T03:31:00;16.90;61.20
5192;DHT22;2615;44.524;11.284;2023-05-07T03:33:28;16.90;61.20
5192;DHT22;2615;44.524;11.284;2023-05-07T03:35:56;16.90;61.30
5192;DHT22;2615;44.524;11.284;2023-05-07T03:38:24;16.90;61.30
5192;DHT22;2615;44.524;11.284;2023-05-07T03:40:52;16.90;61.30
5192;DHT22;2615;44.524;11.284;2023-05-07T03:43:22;16.80;61.20
5192;DHT22;2615;44.524;11.284;2023-05-07T03:45:50;16.80;61.30
5192;DHT22;2615;44.524;11.284;2023-05-07T03:48:18;16.80;61.40
5192;DHT22;2615;44.524;11.284;2023-05-07T03:50:46;16.80;61.40
5192;DHT22;2615;44.524;11.284;2023-05-07T03:53:14;16.80;61.50
5192;DHT22;2615;44.524;11.284;2023-05-07T03:55:42;16.80;61.50
5192;DHT22;2615;44.524;11.284;2023-05-07T03:58:10;16.80;61.50
5192;DHT22;2615;44.524;11.284;2023-05-07T04:00:40;16.70;61.50
5192;DHT22;2615;44.524;11.284;2023-05-07T04:03:08;16.70;61.60
5192;DHT22;2615;44.524;11.284;2023-05-07T04:05:36;16.70;61.60
5192;DHT22;2615;44.524;11.284;2023-05-07T04:08:05;16.70;61.70
5192;DHT22;2615;44.524;11.284;2023-05-07T04:10:33;16.70;61.80
5192;DHT22;2615;44.524;11.284;2023-05-07T04:13:01;16.60;61.90
5192;DHT22;2615;44.524;11.284;2023-05-07T04:15:29;16.60;62.10
5192;DHT22;2615;44.524;11.284;2023-05-07T04:17:58;16.60;62.20
5192;DHT22;2615;44.524;11.284;2023-05-07T04:20:27;16.60;62.40
5192;DHT22;2615;44.524;11.284;2023-05-07T04:22:55;16.70;62.60
5192;DHT22;2615;44.524;11.284;2023-05-07T04:25:23;16.70;62.60
5192;DHT22;2615;44.524;11.284;2023-05-07T04:27:53;16.70;62.60
5192;DHT22;2615;44.524;11.284;2023-05-07T04:30:23;16.70;62.70
5192;DHT22;2615;44.524;11.284;2023-05-07T04:32:52;16.70;62.80
5192;DHT22;2615;44.524;11.284;2023-05-07T04:35:22;16.70;62.80
5192;DHT22;2615;44.524;11.284;2023-05-07T04:37:50;16.70;62.80
5192;DHT22;2615;44.524;11.284;2023-05-07T04:40:18;16.70;62.90
5192;DHT22;2615;44.524;11.284;2023-05-07T04:42:46;16.70;63.00
5192;DHT22;2615;44.524;11.284;2023-05-07T04:45:14;16.80;63.10
5192;DHT22;2615;44.524;11.284;2023-05-07T04:47:42;16.80;63.10
5192;DHT22;2615;44.524;11.284;2023-05-07T04:50:11;16.80;63.20
5192;DHT22;2615;44.524;11.284;2023-05-07T04:52:40;16.80;63.20
5192;DHT22;2615;44.524;11.284;2023-05-07T04:55:09;16.80;63.30
5192;DHT22;2615;44.524;11.284;2023-05-07T04:57:37;16.80;63.30
5192;DHT22;2615;44.524;11.284;2023-05-07T05:00:07;16.80;63.40
5192;DHT22;2615;44.524;11.284;2023-05-07T05:02:37;16.90;63.60
5192;DHT22;2615;44.524;11.284;2023-05-07T05:05:06;16.90;63.50
5192;DHT22;2615;44.524;11.284;2023-05-07T05:07:34;16.90;63.40
5192;DHT22;2615;44.524;11.284;2023-05-07T05:10:05;16.80;63.20
5192;DHT22;2615;44.524;11.284;2023-05-07T05:12:34;16.90;63.30
5192;DHT22;2615;44.524;11.284;2023-05-07T05:15:02;17.00;63.30
5192;DHT22;2615;44.524;11.284;2023-05-07T05:17:31;17.00;63.30
5192;DHT22;2615;44.524;11.284;2023-05-07T05:20:01;17.00;63.20
5192;DHT22;2615;44.524;11.284;2023-05-07T05:22:29;17.00;63.20
5192;DHT22;2615;44.524;11.284;2023-05-07T05:24:58;17.10;63.30
5192;DHT22;2615;44.524;11.284;2023-05-07T05:27:28;17.10;63.30
5192;DHT22;2615;44.524;11.284;2023-05-07T05:29:56;17.20;63.40
5192;DHT22;2615;44.524;11.284;2023-05-07T05:32:24;17.20;63.30
5192;DHT22;2615;44.524;11.284;2023-05-07T05:34:53;17.30;63.30
5192;DHT22;2615;44.524;11.284;2023-05-07T05:37:21;17.40;63.40
5192;DHT22;2615;44.524;11.284;2023-05-07T05:39:49;17.40;63.30
5192;DHT22;2615;44.524;11.284;2023-05-07T05:42:17;17.50;63.40
5192;DHT22;2615;44.524;11.284;2023-05-07T05:44:46;17.60;63.40
5192;DHT22;2615;44.524;11.284;2023-05-07T05:47:15;17.70;63.60
5192;DHT22;2615;44.524;11.284;2023-05-07T05:49:43;17.70;63.60
5192;DHT22;2615;44.524;11.284;2023-05-07T05:52:12;17.90;63.90
5192;DHT22;2615;44.524;11.284;2023-05-07T05:54:41;17.90;64.10
5192;DHT22;2615;44.524;11.284;2023-05-07T05:57:09;18.00;64.30
5192;DHT22;2615;44.524;11.284;2023-05-07T05:59:37;18.10;64.50
5192;DHT22;2615;44.524;11.284;2023-05-07T06:02:06;18.20;64.80
5192;DHT22;2615;44.524;11.284;2023-05-07T06:04:35;18.30;65.00
5192;DHT22;2615;44.524;11.284;2023-05-07T06:07:03;18.40;65.10
5192;DHT22;2615;44.524;11.284;2023-05-07T06:09:31;18.50;65.30
5192;DHT22;2615;44.524;11.284;2023-05-07T06:11:59;18.60;65.40
5192;DHT22;2615;44.524;11.284;2023-05-07T06:14:27;18.70;65.50
5192;DHT22;2615;44.524;11.284;2023-05-07T06:16:56;18.80;65.60
5192;DHT22;2615;44.524;11.284;2023-05-07T06:19:26;18.90;65.80
5192;DHT22;2615;44.524;11.284;2023-05-07T06:21:55;19.00;65.90
5192;DHT22;2615;44.524;11.284;2023-05-07T06:24:24;19.10;65.90
5192;DHT22;2615;44.524;11.284;2023-05-07T06:26:52;19.10;65.80
5192;DHT22;2615;44.524;11.284;2023-05-07T06:29:20;19.20;65.70
5192;DHT22;2615;44.524;11.284;2023-05-07T06:31:48;19.20;65.60
5192;DHT22;2615;44.524;11.284;2023-05-07T06:34:16;19.30;65.60
5192;DHT22;2615;44.524;11.284;2023-05-07T06:36:46;19.30;65.40
5192;DHT22;2615;44.524;11.284;2023-05-07T06:39:14;19.40;65.40
5192;DHT22;2615;44.524;11.284;2023-05-07T06:41:42;19.40;65.30
5192;DHT22;2615;44.524;11.284;2023-05-07T06:44:10;19.50;65.30
5192;DHT22;2615;44.524;11.284;2023-05-07T06:46:40;19.50;65.10
5192;DHT22;2615;44.524;11.284;2023-05-07T06:49:08;19.60;65.20
5192;DHT22;2615;44.524;11.284;2023-05-07T06:51:36;19.60;65.10
5192;DHT22;2615;44.524;11.284;2023-05-07T06:54:06;19.70;65.10
5192;DHT22;2615;44.524;11.284;2023-05-07T06:56:34;19.70;65.10
5192;DHT22;2615;44.524;11.284;2023-05-07T06:59:03;19.80;65.10
5192;DHT22;2615;44.524;11.284;2023-05-07T07:01:31;19.80;65.20
5192;DHT22;2615;44.524;11.284;2023-05-07T07:03:59;19.80;65.10
5192;DHT22;2615;44.524;11.284;2023-05-07T07:06:27;19.90;65.20
5192;DHT22;2615;44.524;11.284;2023-05-07T07:08:56;19.90;65.20
5192;DHT22;2615;44.524;11.284;2023-05-07T07:11:25;20.00;65.30
5192;DHT22;2615;44.524;11.284;2023-05-07T07:13:53;20.10;65.30
5192;DHT22;2615;44.524;11.284;2023-05-07T07:16:22;20.10;65.20
5192;DHT22;2615;44.524;11.284;2023-05-07T07:18:50;20.20;65.20
5192;DHT22;2615;44.524;11.284;2023-05-07T07:21:18;20.20;65.10
5192;DHT22;2615;44.524;11.284;2023-05-07T07:23:47;20.30;65.10
5192;DHT22;2615;44.524;11.284;2023-05-07T07:26:15;20.40;65.00
5192;DHT22;2615;44.524;11.284;2023-05-07T07:28:45;20.50;64.80
5192;DHT22;2615;44.524;11.284;2023-05-07T07:31:13;20.50;64.70
5192;DHT22;2615;44.524;11.284;2023-05-07T07:33:42;20.60;64.70
5192;DHT22;2615;44.524;11.284;2023-05-07T07:36:10;20.60;65.30
5192;DHT22;2615;44.524;11.284;2023-05-07T07:38:38;20.60;64.40
5192;DHT22;2615;44.524;11.284;2023-05-07T07:41:08;20.70;64.20
5192;DHT22;2615;44.524;11.284;2023-05-07T07:43:36;20.80;64.20
5192;DHT22;2615;44.524;11.284;2023-05-07T07:46:06;20.90;64.10
5192;DHT22;2615;44.524;11.284;2023-05-07T07:48:35;21.00;64.00
5192;DHT22;2615;44.524;11.284;2023-05-07T07:51:04;21.10;63.90
5192;DHT22;2615;44.524;11.284;2023-05-07T07:53:32;21.10;63.60
5192;DHT22;2615;44.524;11.284;2023-05-07T07:56:01;21.30;63.60
5192;DHT22;2615;44.524;11.284;2023-05-07T07:58:32;21.30;63.40
5192;DHT22;2615;44.524;11.284;2023-05-07T08:01:03;21.40;63.20
5192;DHT22;2615;44.524;11.284;2023-05-07T08:03:33;21.50;63.00
5192;DHT22;2615;44.524;11.284;2023-05-07T08:06:03;21.60;62.90
5192;DHT22;2615;44.524;11.284;2023-05-07T08:08:31;21.70;62.80
5192;DHT22;2615;44.524;11.284;2023-05-07T08:11:00;21.80;62.60
5192;DHT22;2615;44.524;11.284;2023-05-07T08:13:29;21.90;62.30
5192;DHT22;2615;44.524;11.284;2023-05-07T08:15:58;22.00;62.10
5192;DHT22;2615;44.524;11.284;2023-05-07T08:18:26;22.00;61.60
5192;DHT22;2615;44.524;11.284;2023-05-07T08:20:57;22.00;61.20
5192;DHT22;2615;44.524;11.284;2023-05-07T08:23:25;22.00;61.00
5192;DHT22;2615;44.524;11.284;2023-05-07T08:25:53;22.00;60.90
5192;DHT22;2615;44.524;11.284;2023-05-07T08:28:21;22.00;60.80
5192;DHT22;2615;44.524;11.284;2023-05-07T08:30:51;22.10;60.80
5192;DHT22;2615;44.524;11.284;2023-05-07T08:33:19;22.20;60.50
5192;DHT22;2615;44.524;11.284;2023-05-07T08:35:47;22.30;60.20
5192;DHT22;2615;44.524;11.284;2023-05-07T08:38:17;22.30;60.00
5192;DHT22;2615;44.524;11.284;2023-05-07T08:40:45;22.50;59.90
5192;DHT22;2615;44.524;11.284;2023-05-07T08:43:14;22.60;59.80
5192;DHT22;2615;44.524;11.284;2023-05-07T08:45:45;22.70;59.70
5192;DHT22;2615;44.524;11.284;2023-05-07T08:48:16;22.80;59.50
5192;DHT22;2615;44.524;11.284;2023-05-07T08:50:44;22.90;59.40
5192;DHT22;2615;44.524;11.284;2023-05-07T08:53:13;23.00;59.30
5192;DHT22;2615;44.524;11.284;2023-05-07T08:55:44;23.10;59.10
5192;DHT22;2615;44.524;11.284;2023-05-07T08:58:12;23.30;59.00
5192;DHT22;2615;44.524;11.284;2023-05-07T09:00:42;23.30;58.80
5192;DHT22;2615;44.524;11.284;2023-05-07T09:03:10;23.40;58.50
5192;DHT22;2615;44.524;11.284;2023-05-07T09:05:40;23.50;58.20
5192;DHT22;2615;44.524;11.284;2023-05-07T09:08:13;23.60;57.90
5192;DHT22;2615;44.524;11.284;2023-05-07T09:10:44;23.70;57.60
5192;DHT22;2615;44.524;11.284;2023-05-07T09:13:12;23.80;57.70
5192;DHT22;2615;44.524;11.284;2023-05-07T09:15:41;23.90;57.70
5192;DHT22;2615;44.524;11.284;2023-05-07T09:18:09;24.00;57.60
5192;DHT22;2615;44.524;11.284;2023-05-07T09:20:38;24.20;57.10
5192;DHT22;2615;44.524;11.284;2023-05-07T09:23:06;24.30;56.80
5192;DHT22;2615;44.524;11.284;2023-05-07T09:25:36;24.40;56.70
5192;DHT22;2615;44.524;11.284;2023-05-07T09:28:05;24.50;56.60
5192;DHT22;2615;44.524;11.284;2023-05-07T09:30:34;24.70;56.50
5192;DHT22;2615;44.524;11.284;2023-05-07T09:33:03;24.90;56.20
5192;DHT22;2615;44.524;11.284;2023-05-07T09:35:32;25.00;55.70
5192;DHT22;2615;44.524;11.284;2023-05-07T09:38:01;25.10;55.50
5192;DHT22;2615;44.524;11.284;2023-05-07T09:40:30;25.20;55.60
5192;DHT22;2615;44.524;11.284;2023-05-07T09:43:10;25.40;55.50
5192;DHT22;2615;44.524;11.284;2023-05-07T09:45:38;25.40;55.10
5192;DHT22;2615;44.524;11.284;2023-05-07T09:48:08;25.50;55.00
5192;DHT22;2615;44.524;11.284;2023-05-07T09:50:40;25.50;55.00
5192;DHT22;2615;44.524;11.284;2023-05-07T09:53:12;25.60;54.90
5192;DHT22;2615;44.524;11.284;2023-05-07T09:55:42;25.80;54.60
5192;DHT22;2615;44.524;11.284;2023-05-07T09:58:12;25.90;54.50
5192;DHT22;2615;44.524;11.284;2023-05-07T10:00:42;26.20;54.40
5192;DHT22;2615;44.524;11.284;2023-05-07T10:03:11;26.30;53.80
5192;DHT22;2615;44.524;11.284;2023-05-07T10:05:42;26.40;53.40
5192;DHT22;2615;44.524;11.284;2023-05-07T10:08:11;26.60;53.10
5192;DHT22;2615;44.524;11.284;2023-05-07T10:10:40;26.70;52.90
5192;DHT22;2615;44.524;11.284;2023-05-07T10:13:09;26.80;53.20
5192;DHT22;2615;44.524;11.284;2023-05-07T10:15:39;26.90;52.20
5192;DHT22;2615;44.524;11.284;2023-05-07T10:18:09;27.00;52.10
5192;DHT22;2615;44.524;11.284;2023-05-07T10:20:39;27.20;51.90
5192;DHT22;2615;44.524;11.284;2023-05-07T10:23:09;27.30;51.40
5192;DHT22;2615;44.524;11.284;2023-05-07T10:25:40;27.40;51.00
5192;DHT22;2615;44.524;11.284;2023-05-07T10:28:10;27.50;50.70
5192;DHT22;2615;44.524;11.284;2023-05-07T10:30:50;27.60;50.40
5192;DHT22;2615;44.524;11.284;2023-05-07T10:33:26;27.80;50.20
5192;DHT22;2615;44.524;11.284;2023-05-07T10:35:58;27.90;50.20
5192;DHT22;2615;44.524;11.284;2023-05-07T10:38:28;28.10;50.10
5192;DHT22;2615;44.524;11.284;2023-05-07T10:40:56;28.20;49.80
5192;DHT22;2615;44.524;11.284;2023-05-07T10:43:24;28.40;49.30
5192;DHT22;2615;44.524;11.284;2023-05-07T10:46:15;28.50;49.00
5192;DHT22;2615;44.524;11.284;2023-05-07T10:49:11;28.60;48.40
5192;DHT22;2615;44.524;11.284;2023-05-07T10:51:40;28.80;48.20
5192;DHT22;2615;44.524;11.284;2023-05-07T10:54:22;28.90;48.10
5192;DHT22;2615;44.524;11.284;2023-05-07T10:56:50;29.10;47.50
5192;DHT22;2615;44.524;11.284;2023-05-07T10:59:34;29.10;47.40
5192;DHT22;2615;44.524;11.284;2023-05-07T11:02:10;29.20;46.90
5192;DHT22;2615;44.524;11.284;2023-05-07T11:04:41;29.40;46.70
5192;DHT22;2615;44.524;11.284;2023-05-07T11:07:25;29.60;46.40
5192;DHT22;2615;44.524;11.284;2023-05-07T11:09:58;29.80;45.60
5192;DHT22;2615;44.524;11.284;2023-05-07T11:12:53;30.00;45.50
5192;DHT22;2615;44.524;11.284;2023-05-07T11:18:14;30.50;44.50
5192;DHT22;2615;44.524;11.284;2023-05-07T11:21:03;30.70;44.20
5192;DHT22;2615;44.524;11.284;2023-05-07T11:26:47;31.10;43.00
5192;DHT22;2615;44.524;11.284;2023-05-07T11:29:17;31.30;43.10
5192;DHT22;2615;44.524;11.284;2023-05-07T11:31:49;31.50;42.90
5192;DHT22;2615;44.524;11.284;2023-05-07T11:34:22;31.70;42.90
5192;DHT22;2615;44.524;11.284;2023-05-07T11:39:24;32.00;41.20
5192;DHT22;2615;44.524;11.284;2023-05-07T11:41:52;32.20;41.50
5192;DHT22;2615;44.524;11.284;2023-05-07T11:44:20;32.40;41.50
5192;DHT22;2615;44.524;11.284;2023-05-07T11:46:49;32.60;41.60
5192;DHT22;2615;44.524;11.284;2023-05-07T11:49:17;32.80;41.10
5192;DHT22;2615;44.524;11.284;2023-05-07T11:51:47;32.80;40.70
5192;DHT22;2615;44.524;11.284;2023-05-07T11:54:16;32.90;40.80
5192;DHT22;2615;44.524;11.284;2023-05-07T11:56:44;32.90;41.00
5192;DHT22;2615;44.524;11.284;2023-05-07T11:59:17;33.10;41.00
5192;DHT22;2615;44.524;11.284;2023-05-07T12:01:46;33.30;40.60
5192;DHT22;2615;44.524;11.284;2023-05-07T12:04:19;33.30;40.70
5192;DHT22;2615;44.524;11.284;2023-05-07T12:06:53;33.30;40.60
5192;DHT22;2615;44.524;11.284;2023-05-07T12:09:22;33.50;40.50
5192;DHT22;2615;44.524;11.284;2023-05-07T12:11:52;33.50;40.20
5192;DHT22;2615;44.524;11.284;2023-05-07T12:14:20;33.40;40.00
5192;DHT22;2615;44.524;11.284;2023-05-07T12:16:48;33.40;39.90
5192;DHT22;2615;44.524;11.284;2023-05-07T12:19:16;33.40;40.00
5192;DHT22;2615;44.524;11.284;2023-05-07T12:21:45;33.30;40.10
5192;DHT22;2615;44.524;11.284;2023-05-07T12:24:15;33.20;40.20
5192;DHT22;2615;44.524;11.284;2023-05-07T12:26:48;33.10;40.30
5192;DHT22;2615;44.524;11.284;2023-05-07T12:29:16;32.80;40.40
5192;DHT22;2615;44.524;11.284;2023-05-07T12:31:44;32.50;40.50
5192;DHT22;2615;44.524;11.284;2023-05-07T12:34:12;32.20;40.80
5192;DHT22;2615;44.524;11.284;2023-05-07T12:36:40;31.90;41.20
5192;DHT22;2615;44.524;11.284;2023-05-07T12:39:09;31.60;41.60
5192;DHT22;2615;44.524;11.284;2023-05-07T12:47:02;30.70;42.10
5192;DHT22;2615;44.524;11.284;2023-05-07T12:49:30;30.40;42.90
5192;DHT22;2615;44.524;11.284;2023-05-07T12:51:58;30.20;43.10
5192;DHT22;2615;44.524;11.284;2023-05-07T12:54:30;29.90;43.30
5192;DHT22;2615;44.524;11.284;2023-05-07T12:57:02;29.70;43.60
5192;DHT22;2615;44.524;11.284;2023-05-07T12:59:33;29.60;44.00
5192;DHT22;2615;44.524;11.284;2023-05-07T13:02:01;29.40;44.20
5192;DHT22;2615;44.524;11.284;2023-05-07T13:04:29;29.30;44.60
5192;DHT22;2615;44.524;11.284;2023-05-07T13:06:58;29.10;44.80
5192;DHT22;2615;44.524;11.284;2023-05-07T13:09:26;29.00;45.00
5192;DHT22;2615;44.524;11.284;2023-05-07T13:11:55;28.90;45.30
5192;DHT22;2615;44.524;11.284;2023-05-07T13:14:26;28.90;45.50
5192;DHT22;2615;44.524;11.284;2023-05-07T13:16:56;28.70;45.60
5192;DHT22;2615;44.524;11.284;2023-05-07T13:19:25;28.70;45.80
5192;DHT22;2615;44.524;11.284;2023-05-07T13:21:56;28.60;45.90
5192;DHT22;2615;44.524;11.284;2023-05-07T13:24:24;28.50;45.80
5192;DHT22;2615;44.524;11.284;2023-05-07T13:26:52;28.40;45.90
5192;DHT22;2615;44.524;11.284;2023-05-07T13:29:20;28.40;46.10
5192;DHT22;2615;44.524;11.284;2023-05-07T13:31:52;28.30;46.40
5192;DHT22;2615;44.524;11.284;2023-05-07T13:34:21;28.20;46.50
5192;DHT22;2615;44.524;11.284;2023-05-07T13:36:49;28.20;46.60
5192;DHT22;2615;44.524;11.284;2023-05-07T13:39:18;28.10;46.60
5192;DHT22;2615;44.524;11.284;2023-05-07T13:41:46;28.10;46.80
5192;DHT22;2615;44.524;11.284;2023-05-07T13:44:14;28.00;46.90
5192;DHT22;2615;44.524;11.284;2023-05-07T13:46:42;28.00;47.20
5192;DHT22;2615;44.524;11.284;2023-05-07T13:49:11;28.00;47.40
5192;DHT22;2615;44.524;11.284;2023-05-07T13:51:41;27.90;47.40
5192;DHT22;2615;44.524;11.284;2023-05-07T13:54:10;27.80;47.40
5192;DHT22;2615;44.524;11.284;2023-05-07T13:56:38;27.80;47.50
5192;DHT22;2615;44.524;11.284;2023-05-07T13:59:06;27.70;47.50
5192;DHT22;2615;44.524;11.284;2023-05-07T14:01:35;27.60;47.60
5192;DHT22;2615;44.524;11.284;2023-05-07T14:04:03;27.60;47.70
5192;DHT22;2615;44.524;11.284;2023-05-07T14:06:31;27.60;47.70
5192;DHT22;2615;44.524;11.284;2023-05-07T14:09:01;27.50;47.70
5192;DHT22;2615;44.524;11.284;2023-05-07T14:11:29;27.50;47.70
5192;DHT22;2615;44.524;11.284;2023-05-07T14:13:59;27.40;47.70
5192;DHT22;2615;44.524;11.284;2023-05-07T14:16:27;27.40;47.80
5192;DHT22;2615;44.524;11.284;2023-05-07T14:18:55;27.40;47.90
5192;DHT22;2615;44.524;11.284;2023-05-07T14:21:24;27.40;48.10
5192;DHT22;2615;44.524;11.284;2023-05-07T14:23:52;27.40;48.30
5192;DHT22;2615;44.524;11.284;2023-05-07T14:26:23;27.40;48.40
5192;DHT22;2615;44.524;11.284;2023-05-07T14:28:53;27.30;48.30
5192;DHT22;2615;44.524;11.284;2023-05-07T14:31:24;27.30;48.30
5192;DHT22;2615;44.524;11.284;2023-05-07T14:33:52;27.20;48.30
5192;DHT22;2615;44.524;11.284;2023-05-07T14:36:20;27.20;48.40
5192;DHT22;2615;44.524;11.284;2023-05-07T14:38:49;27.20;48.60
5192;DHT22;2615;44.524;11.284;2023-05-07T14:41:17;27.10;48.80
5192;DHT22;2615;44.524;11.284;2023-05-07T14:43:47;27.10;48.80
5192;DHT22;2615;44.524;11.284;2023-05-07T14:46:17;27.10;48.80
5192;DHT22;2615;44.524;11.284;2023-05-07T14:48:45;27.10;48.90
5192;DHT22;2615;44.524;11.284;2023-05-07T14:51:13;27.10;49.00
5192;DHT22;2615;44.524;11.284;2023-05-07T14:53:42;27.00;49.00
5192;DHT22;2615;44.524;11.284;2023-05-07T14:56:10;27.00;49.20
5192;DHT22;2615;44.524;11.284;2023-05-07T14:58:38;27.00;49.40
5192;DHT22;2615;44.524;11.284;2023-05-07T15:01:07;27.00;49.60
5192;DHT22;2615;44.524;11.284;2023-05-07T15:03:36;26.90;49.70
5192;DHT22;2615;44.524;11.284;2023-05-07T15:06:04;26.90;49.80
5192;DHT22;2615;44.524;11.284;2023-05-07T15:08:32;26.80;49.80
5192;DHT22;2615;44.524;11.284;2023-05-07T15:11:00;26.80;49.90
5192;DHT22;2615;44.524;11.284;2023-05-07T15:13:29;26.70;49.90
5192;DHT22;2615;44.524;11.284;2023-05-07T15:15:57;26.70;50.00
5192;DHT22;2615;44.524;11.284;2023-05-07T15:18:26;26.70;50.10
5192;DHT22;2615;44.524;11.284;2023-05-07T15:20:55;26.70;50.10
5192;DHT22;2615;44.524;11.284;2023-05-07T15:23:24;26.70;50.10
5192;DHT22;2615;44.524;11.284;2023-05-07T15:25:52;26.60;50.00
5192;DHT22;2615;44.524;11.284;2023-05-07T15:28:21;26.60;50.10
5192;DHT22;2615;44.524;11.284;2023-05-07T15:30:49;26.60;50.20
5192;DHT22;2615;44.524;11.284;2023-05-07T15:33:17;26.50;50.20
5192;DHT22;2615;44.524;11.284;2023-05-07T15:35:46;26.50;50.30
5192;DHT22;2615;44.524;11.284;2023-05-07T15:38:14;26.50;50.50
5192;DHT22;2615;44.524;11.284;2023-05-07T15:40:42;26.50;50.60
5192;DHT22;2615;44.524;11.284;2023-05-07T15:43:11;26.50;50.80
5192;DHT22;2615;44.524;11.284;2023-05-07T15:45:40;26.50;50.90
5192;DHT22;2615;44.524;11.284;2023-05-07T15:48:09;26.50;51.50
5192;DHT22;2615;44.524;11.284;2023-05-07T15:50:37;26.50;51.00
5192;DHT22;2615;44.524;11.284;2023-05-07T15:53:07;26.50;51.20
5192;DHT22;2615;44.524;11.284;2023-05-07T15:55:36;26.50;51.30
5192;DHT22;2615;44.524;11.284;2023-05-07T15:58:04;26.50;51.40
5192;DHT22;2615;44.524;11.284;2023-05-07T16:00:32;26.50;51.60
5192;DHT22;2615;44.524;11.284;2023-05-07T16:03:02;26.50;51.70
5192;DHT22;2615;44.524;11.284;2023-05-07T16:05:30;26.40;51.90
5192;DHT22;2615;44.524;11.284;2023-05-07T16:07:58;26.30;52.10
5192;DHT22;2615;44.524;11.284;2023-05-07T16:10:28;26.40;52.40